createdAt,value
2022-09-09T00:02:13.335Z,21.22
2022-09-09T00:04:40.956Z,21.40
2022-09-09T00:07:22.105Z,21.50
2022-09-09T00:10:19.191Z,21.17
2022-09-09T00:12:52.511Z,21.37
2022-09-09T00:15:21.811Z,20.92
2022-09-09T00:17:50.895Z,21.03
2022-09-09T00:20:22.142Z,21.09
2022-09-09T00:22:52.421Z,21.03
2022-09-09T00:25:25.061Z,21.34
2022-09-09T00:27:52.558Z,21.23
2022-09-09T00:30:23.362Z,21.31
2022-09-09T00:32:51.895Z,21.23
2022-09-09T00:35:23.338Z,21.20
2022-09-09T00:37:51.982Z,21.32
2022-09-09T00:40:23.367Z,21.38
2022-09-09T00:42:52.601Z,21.36
2022-09-09T00:45:28.066Z,21.49
2022-09-09T00:47:55.447Z,21.55
2022-09-09T00:50:26.187Z,21.41
2022-09-09T00:53:22.928Z,21.52
2022-09-09T00:55:50.570Z,21.25
2022-09-09T00:58:18.174Z,21.20
2022-09-09T01:00:50.138Z,21.03
2022-09-09T01:03:35.815Z,21.19
2022-09-09T01:06:06.403Z,21.05
2022-09-09T01:08:53.105Z,21.31
2022-09-09T01:11:39.500Z,21.08
2022-09-09T01:14:41.151Z,20.75
2022-09-09T01:17:10.941Z,20.85
2022-09-09T01:19:45.455Z,20.67
2022-09-09T01:22:20.461Z,20.75
2022-09-09T01:25:06.961Z,20.77
2022-09-09T01:27:35.762Z,20.84
2022-09-09T01:30:05.679Z,20.71
2022-09-09T01:32:43.730Z,20.65
2022-09-09T01:35:31.825Z,20.67
2022-09-09T01:38:00.446Z,20.85
2022-09-09T01:40:28.105Z,20.85
2022-09-09T01:42:56.125Z,20.82
2022-09-09T01:45:23.386Z,21.00
2022-09-09T01:47:51.539Z,20.86
2022-09-09T01:50:19.466Z,20.97
2022-09-09T01:52:47.401Z,20.88
2022-09-09T01:55:15.942Z,20.70
2022-09-09T01:58:00.566Z,20.86
2022-09-09T02:00:28.222Z,20.74
2022-09-09T02:02:58.675Z,20.82
2022-09-09T02:05:42.650Z,20.87
2022-09-09T02:08:12.621Z,20.23
2022-09-09T02:10:43.412Z,20.60
2022-09-09T02:13:12.676Z,20.74
2022-09-09T02:15:40.264Z,20.67
2022-09-09T02:18:09.016Z,20.60
2022-09-09T02:20:38.232Z,20.51
2022-09-09T02:23:06.757Z,20.50
2022-09-09T02:25:34.382Z,20.37
2022-09-09T02:28:04.034Z,20.36
2022-09-09T02:30:31.578Z,20.45
2022-09-09T02:32:59.615Z,20.41
2022-09-09T02:35:27.532Z,20.64
2022-09-09T02:37:56.154Z,20.52
2022-09-09T02:40:23.987Z,20.43
2022-09-09T02:42:52.635Z,20.50
2022-09-09T02:45:21.213Z,20.59
2022-09-09T02:48:04.084Z,20.37
2022-09-09T02:50:35.806Z,20.56
2022-09-09T02:53:03.220Z,20.39
2022-09-09T02:55:43.328Z,20.41
2022-09-09T02:58:12.853Z,20.61
2022-09-09T03:00:41.218Z,20.74
2022-09-09T03:03:09.804Z,20.39
2022-09-09T03:05:37.662Z,20.29
2022-09-09T03:08:06.498Z,20.37
2022-09-09T03:10:33.995Z,20.44
2022-09-09T03:13:01.770Z,20.28
2022-09-09T03:15:32.215Z,20.48
2022-09-09T03:17:59.827Z,20.50
2022-09-09T03:20:27.985Z,20.78
2022-09-09T03:22:55.812Z,20.65
2022-09-09T03:25:26.782Z,20.57
2022-09-09T03:27:55.924Z,20.51
2022-09-09T03:30:24.707Z,20.80
2022-09-09T03:32:52.721Z,20.62
2022-09-09T03:35:20.400Z,20.19
2022-09-09T03:37:47.710Z,20.15
2022-09-09T03:40:17.099Z,20.27
2022-09-09T03:42:45.032Z,20.25
2022-09-09T03:45:12.444Z,20.09
2022-09-09T03:47:39.859Z,20.20
2022-09-09T03:50:09.560Z,20.17
2022-09-09T03:52:38.039Z,20.15
2022-09-09T03:55:08.933Z,20.26
2022-09-09T03:57:37.558Z,20.15
2022-09-09T04:00:06.769Z,20.13
2022-09-09T04:02:44.683Z,19.97
2022-09-09T04:05:12.695Z,20.11
2022-09-09T04:07:41.171Z,20.11
2022-09-09T04:10:09.483Z,20.20
2022-09-09T04:12:38.601Z,19.89
2022-09-09T04:15:06.615Z,19.95
2022-09-09T04:17:34.274Z,20.16
2022-09-09T04:20:02.518Z,19.99
2022-09-09T04:22:29.745Z,19.74
2022-09-09T04:24:57.142Z,20.07
2022-09-09T04:27:26.816Z,19.92
2022-09-09T04:29:54.455Z,19.93
2022-09-09T04:32:22.313Z,19.86
2022-09-09T04:34:49.984Z,19.95
2022-09-09T04:37:17.794Z,19.90
2022-09-09T04:39:46.226Z,19.66
2022-09-09T04:42:13.994Z,19.55
2022-09-09T04:44:43.291Z,19.92
2022-09-09T04:47:11.034Z,19.57
2022-09-09T04:49:39.491Z,19.76
2022-09-09T04:52:06.928Z,19.88
2022-09-09T04:54:34.440Z,20.17
2022-09-09T04:57:02.462Z,20.03
2022-09-09T04:59:29.974Z,20.05
2022-09-09T05:01:57.793Z,20.03
2022-09-09T05:04:25.340Z,20.16
2022-09-09T05:06:52.565Z,20.07
2022-09-09T05:09:19.830Z,19.97
2022-09-09T05:11:47.614Z,19.71
2022-09-09T05:14:15.765Z,19.64
2022-09-09T05:16:45.346Z,19.76
2022-09-09T05:19:13.447Z,19.75
2022-09-09T05:21:42.638Z,19.88
2022-09-09T05:24:10.145Z,19.99
2022-09-09T05:26:37.908Z,20.20
2022-09-09T05:29:05.862Z,20.15
2022-09-09T05:31:33.909Z,20.16
2022-09-09T05:34:01.912Z,19.84
2022-09-09T05:36:29.219Z,20.16
2022-09-09T05:38:56.699Z,20.20
2022-09-09T05:41:24.704Z,20.16
2022-09-09T05:43:53.473Z,20.46
2022-09-09T05:46:22.436Z,20.40
2022-09-09T05:48:53.129Z,20.49
2022-09-09T05:51:25.131Z,20.87
2022-09-09T05:53:53.085Z,20.79
2022-09-09T05:56:22.809Z,20.87
2022-09-09T05:58:50.323Z,21.03
2022-09-09T06:01:20.034Z,20.91
2022-09-09T06:03:48.266Z,20.61
2022-09-09T06:06:21.780Z,20.73
2022-09-09T06:08:52.033Z,20.87
2022-09-09T06:11:23.482Z,20.90
2022-09-09T06:13:55.576Z,21.11
2022-09-09T06:16:39.843Z,20.88
2022-09-09T06:19:07.923Z,21.27
2022-09-09T06:21:37.082Z,20.95
2022-09-09T06:24:05.184Z,21.21
2022-09-09T06:26:33.792Z,21.33
2022-09-09T06:29:01.552Z,21.31
2022-09-09T06:31:31.321Z,21.49
2022-09-09T06:34:00.039Z,21.71
2022-09-09T06:36:31.147Z,21.81
2022-09-09T06:38:59.680Z,21.78
2022-09-09T06:41:28.135Z,21.53
2022-09-09T06:43:59.037Z,21.92
2022-09-09T06:46:33.418Z,21.82
2022-09-09T06:49:00.923Z,21.87
2022-09-09T06:51:29.983Z,21.88
2022-09-09T06:53:58.462Z,22.20
2022-09-09T06:56:29.028Z,22.17
2022-09-09T06:58:57.514Z,22.05
2022-09-09T07:01:25.882Z,21.98
2022-09-09T07:03:54.104Z,21.99
2022-09-09T07:06:32.223Z,21.83
2022-09-09T07:09:00.626Z,21.90
2022-09-09T07:11:35.610Z,21.79
2022-09-09T07:14:03.455Z,21.71
2022-09-09T07:16:32.809Z,21.75
2022-09-09T07:19:01.433Z,21.88
2022-09-09T07:21:29.522Z,22.16
2022-09-09T07:23:57.249Z,22.14
2022-09-09T07:26:26.732Z,22.01
2022-09-09T07:28:54.799Z,22.28
2022-09-09T07:31:33.656Z,22.79
2022-09-09T07:34:01.718Z,22.73
2022-09-09T07:36:33.512Z,22.77
2022-09-09T07:39:02.823Z,23.06
2022-09-09T07:41:37.573Z,23.18
2022-09-09T07:44:06.401Z,23.07
2022-09-09T07:46:35.106Z,23.57
2022-09-09T07:49:03.420Z,23.39
2022-09-09T07:51:42.877Z,23.60
2022-09-09T07:54:12.300Z,23.59
2022-09-09T07:56:40.525Z,23.91
2022-09-09T07:59:08.251Z,24.33
2022-09-09T08:01:40.007Z,23.82
2022-09-09T08:04:09.577Z,24.32
2022-09-09T08:06:38.225Z,24.09
2022-09-09T08:09:06.567Z,24.38
2022-09-09T08:11:38.609Z,24.61
2022-09-09T08:14:08.583Z,24.71
2022-09-09T08:16:38.184Z,24.84
2022-09-09T08:19:08.324Z,24.92
2022-09-09T08:21:37.704Z,25.32
2022-09-09T08:24:08.265Z,25.03
2022-09-09T08:26:36.885Z,25.32
2022-09-09T08:29:05.305Z,25.55
2022-09-09T08:31:32.832Z,25.81
2022-09-09T08:34:01.233Z,25.69
2022-09-09T08:36:29.783Z,25.47
2022-09-09T08:38:58.006Z,25.87
2022-09-09T08:41:26.691Z,25.84
2022-09-09T08:44:00.072Z,25.83
2022-09-09T08:46:49.238Z,25.81
2022-09-09T08:49:19.712Z,26.06
2022-09-09T08:51:47.414Z,25.99
2022-09-09T08:54:21.944Z,25.87
2022-09-09T08:57:02.658Z,26.02
2022-09-09T08:59:30.024Z,26.27
2022-09-09T09:02:02.658Z,26.40
2022-09-09T09:04:45.510Z,26.60
2022-09-09T09:07:19.110Z,26.68
2022-09-09T09:10:03.114Z,27.08
2022-09-09T09:12:32.200Z,27.29
2022-09-09T09:15:00.112Z,27.23
2022-09-09T09:17:28.709Z,27.24
2022-09-09T09:19:56.126Z,27.26
2022-09-09T09:22:26.278Z,27.16
2022-09-09T09:24:58.140Z,27.65
2022-09-09T09:27:26.049Z,27.75
2022-09-09T09:30:20.360Z,27.73
2022-09-09T09:32:42.798Z,27.49
2022-09-09T09:35:11.253Z,27.57
2022-09-09T09:40:26.579Z,27.96
2022-09-09T09:42:55.188Z,27.70
2022-09-09T09:45:25.708Z,27.73
2022-09-09T09:48:04.167Z,27.84
2022-09-09T09:50:34.375Z,28.22
2022-09-09T09:53:06.199Z,28.26
2022-09-09T09:55:34.617Z,28.01
2022-09-09T10:00:52.190Z,28.20
2022-09-09T10:03:32.859Z,28.16
2022-09-09T10:06:01.662Z,28.34
2022-09-09T10:08:29.314Z,28.47
2022-09-09T10:10:56.903Z,28.11
2022-09-09T10:13:27.336Z,28.63
2022-09-09T10:16:24.122Z,28.70
2022-09-09T10:18:57.152Z,28.91
2022-09-09T10:21:44.159Z,29.37
2022-09-09T10:24:14.606Z,29.46
2022-09-09T10:26:56.558Z,29.52
2022-09-09T10:29:26.876Z,29.76
2022-09-09T10:31:54.589Z,29.36
2022-09-09T10:34:31.056Z,29.74
2022-09-09T10:36:59.459Z,29.67
2022-09-09T10:39:39.126Z,29.68
2022-09-09T10:42:17.800Z,29.71
2022-09-09T10:44:51.539Z,29.70
2022-09-09T10:47:33.816Z,29.88
2022-09-09T10:50:13.613Z,29.79
2022-09-09T10:52:43.631Z,29.96
2022-09-09T10:55:11.739Z,30.08
2022-09-09T10:57:42.255Z,30.10
2022-09-09T11:00:23.396Z,30.08
2022-09-09T11:03:01.603Z,29.72
2022-09-09T11:05:35.159Z,29.34
2022-09-09T11:08:04.299Z,29.83
2022-09-09T11:10:38.013Z,30.07
2022-09-09T11:13:05.883Z,30.12
2022-09-09T11:15:36.752Z,30.21
2022-09-09T11:18:05.271Z,30.03
2022-09-09T11:20:33.523Z,29.80
2022-09-09T11:23:11.833Z,29.99
2022-09-09T11:25:59.742Z,30.21
2022-09-09T11:28:45.978Z,30.46
2022-09-09T11:31:29.597Z,30.33
2022-09-09T11:34:09.454Z,30.22
2022-09-09T11:36:43.273Z,29.90
2022-09-09T11:39:25.594Z,30.01
2022-09-09T11:41:53.667Z,30.14
2022-09-09T11:44:26.073Z,30.01
2022-09-09T11:47:02.503Z,30.02
2022-09-09T11:49:32.438Z,29.79
2022-09-09T11:52:00.102Z,29.53
2022-09-09T11:54:34.001Z,29.38
2022-09-09T11:57:02.270Z,29.54
2022-09-09T11:59:31.141Z,29.47
2022-09-09T12:02:12.090Z,29.37
2022-09-09T12:04:45.851Z,29.19
2022-09-09T12:07:28.904Z,28.64
2022-09-09T12:10:06.353Z,29.09
2022-09-09T12:12:34.911Z,29.08
2022-09-09T12:15:08.671Z,29.45
2022-09-09T12:17:43.307Z,29.69
2022-09-09T12:20:16.983Z,29.93
2022-09-09T12:22:57.956Z,30.24
2022-09-09T12:25:44.366Z,30.24
2022-09-09T12:28:31.008Z,30.17
2022-09-09T12:31:19.134Z,30.31
2022-09-09T12:33:49.117Z,30.56
2022-09-09T12:36:17.757Z,30.84
2022-09-09T12:38:45.077Z,30.74
2022-09-09T12:41:22.713Z,30.56
2022-09-09T12:43:51.707Z,30.82
2022-09-09T12:46:39.493Z,31.29
2022-09-09T12:49:07.553Z,30.90
2022-09-09T12:51:34.906Z,30.36
2022-09-09T12:54:02.293Z,30.41
2022-09-09T12:56:31.429Z,30.50
2022-09-09T12:58:59.302Z,30.03
2022-09-09T13:01:27.925Z,30.15
2022-09-09T13:04:17.325Z,30.09
2022-09-09T13:06:45.472Z,29.92
2022-09-09T13:09:13.412Z,29.85
2022-09-09T13:11:43.198Z,29.72
2022-09-09T13:14:21.365Z,29.50
2022-09-09T13:16:59.271Z,29.73
2022-09-09T13:19:28.926Z,29.76
2022-09-09T13:21:57.117Z,29.82
2022-09-09T13:24:29.519Z,29.73
2022-09-09T13:27:02.962Z,30.03
2022-09-09T13:29:30.932Z,29.65
2022-09-09T13:32:22.170Z,29.85
2022-09-09T13:34:53.966Z,29.99
2022-09-09T13:37:28.689Z,29.72
2022-09-09T13:39:56.167Z,29.22
2022-09-09T13:42:27.757Z,29.13
2022-09-09T13:44:55.389Z,29.27
2022-09-09T13:47:24.364Z,29.19
2022-09-09T13:49:52.010Z,29.60
2022-09-09T13:52:19.975Z,30.04
2022-09-09T13:54:50.990Z,29.90
2022-09-09T13:57:20.598Z,29.99
2022-09-09T14:00:04.104Z,29.70
2022-09-09T14:02:33.015Z,29.80
2022-09-09T14:05:00.259Z,29.98
2022-09-09T14:07:27.508Z,29.71
2022-09-09T14:09:55.063Z,29.57
2022-09-09T14:12:22.583Z,29.66
2022-09-09T14:14:50.757Z,29.28
2022-09-09T14:17:18.493Z,29.59
2022-09-09T14:19:47.012Z,29.28
2022-09-09T14:22:14.265Z,29.53
2022-09-09T14:24:41.983Z,29.33
2022-09-09T14:27:09.767Z,29.54
2022-09-09T14:29:38.291Z,29.32
2022-09-09T14:32:09.402Z,29.07
2022-09-09T14:34:39.334Z,29.20
2022-09-09T14:37:07.397Z,29.37
2022-09-09T14:39:34.678Z,29.32
2022-09-09T14:42:02.129Z,29.18
2022-09-09T14:44:30.157Z,29.35
2022-09-09T14:46:57.486Z,29.35
2022-09-09T14:49:24.737Z,29.07
2022-09-09T14:51:52.244Z,29.30
2022-09-09T14:54:19.831Z,29.14
2022-09-09T14:56:48.546Z,29.28
2022-09-09T14:59:16.066Z,29.11
2022-09-09T15:01:43.656Z,29.29
2022-09-09T15:04:12.646Z,29.49
2022-09-09T15:06:41.081Z,29.48
2022-09-09T15:09:08.471Z,29.22
2022-09-09T15:11:39.998Z,29.40
2022-09-09T15:14:08.646Z,29.24
2022-09-09T15:16:36.099Z,28.98
2022-09-09T15:19:03.741Z,29.01
2022-09-09T15:21:35.817Z,28.86
2022-09-09T15:24:03.766Z,28.87
2022-09-09T15:26:31.456Z,28.87
2022-09-09T15:29:00.228Z,28.76
2022-09-09T15:31:29.517Z,28.69
2022-09-09T15:34:01.728Z,28.77
2022-09-09T15:36:30.311Z,28.24
2022-09-09T15:38:57.927Z,28.40
2022-09-09T15:41:25.298Z,28.48
2022-09-09T15:43:53.595Z,28.35
2022-09-09T15:46:38.468Z,28.38
2022-09-09T15:49:07.802Z,28.41
2022-09-09T15:51:42.603Z,28.32
2022-09-09T15:54:13.305Z,28.25
2022-09-09T15:56:41.537Z,28.44
2022-09-09T15:59:09.151Z,28.33
2022-09-09T16:01:36.672Z,28.47
2022-09-09T16:04:05.169Z,28.50
2022-09-09T16:06:34.382Z,28.35
2022-09-09T16:09:03.201Z,28.26
2022-09-09T16:11:32.225Z,28.09
2022-09-09T16:14:00.051Z,28.03
2022-09-09T16:16:28.802Z,27.92
2022-09-09T16:18:57.820Z,27.87
2022-09-09T16:21:30.268Z,27.75
2022-09-09T16:24:00.343Z,27.77
2022-09-09T16:26:28.787Z,27.70
2022-09-09T16:28:56.367Z,27.62
2022-09-09T16:31:24.769Z,27.71
2022-09-09T16:33:52.498Z,27.60
2022-09-09T16:36:26.981Z,27.32
2022-09-09T16:38:56.153Z,27.24
2022-09-09T16:41:23.350Z,27.13
2022-09-09T16:43:57.779Z,27.21
2022-09-09T16:46:26.608Z,26.98
2022-09-09T16:48:55.828Z,26.92
2022-09-09T16:51:27.252Z,26.92
2022-09-09T16:53:55.015Z,26.80
2022-09-09T16:56:23.714Z,26.69
2022-09-09T16:58:51.801Z,26.29
2022-09-09T17:01:19.515Z,26.54
2022-09-09T17:03:47.064Z,26.55
2022-09-09T17:06:15.229Z,26.47
2022-09-09T17:08:42.934Z,26.38
2022-09-09T17:11:16.806Z,26.33
2022-09-09T17:13:44.683Z,26.16
2022-09-09T17:16:12.720Z,26.23
2022-09-09T17:18:40.212Z,25.97
2022-09-09T17:21:09.503Z,25.58
2022-09-09T17:23:39.162Z,25.59
2022-09-09T17:26:08.641Z,25.63
2022-09-09T17:28:39.737Z,25.66
2022-09-09T17:31:07.932Z,25.70
2022-09-09T17:33:36.565Z,25.58
2022-09-09T17:36:07.724Z,25.24
2022-09-09T17:38:36.365Z,25.32
2022-09-09T17:41:07.072Z,25.36
2022-09-09T17:43:34.776Z,24.54
2022-09-09T17:46:13.866Z,24.52
2022-09-09T17:48:41.619Z,24.87
2022-09-09T17:51:10.095Z,24.71
2022-09-09T17:53:38.874Z,24.65
2022-09-09T17:56:07.421Z,24.51
2022-09-09T17:58:34.846Z,24.50
2022-09-09T18:01:10.254Z,24.60
2022-09-09T18:03:38.173Z,24.53
2022-09-09T18:06:06.254Z,24.21
2022-09-09T18:08:36.908Z,24.20
2022-09-09T18:11:05.728Z,24.17
2022-09-09T18:13:33.152Z,24.09
2022-09-09T18:16:01.164Z,24.07
2022-09-09T18:18:29.777Z,24.45
2022-09-09T18:20:58.406Z,24.22
2022-09-09T18:23:25.736Z,24.13
2022-09-09T18:25:53.412Z,24.16
2022-09-09T18:28:24.518Z,24.19
2022-09-09T18:30:52.819Z,24.01
2022-09-09T18:33:20.659Z,23.95
2022-09-09T18:35:50.981Z,23.88
2022-09-09T18:38:19.093Z,23.99
2022-09-09T18:40:46.577Z,23.96
2022-09-09T18:43:15.703Z,24.01
2022-09-09T18:45:44.485Z,24.04
2022-09-09T18:48:15.336Z,23.90
2022-09-09T18:50:43.417Z,24.04
2022-09-09T18:53:10.875Z,24.06
2022-09-09T18:55:38.154Z,24.10
2022-09-09T18:58:05.655Z,24.03
2022-09-09T19:00:33.435Z,23.98
2022-09-09T19:03:01.772Z,24.00
2022-09-09T19:05:31.140Z,23.81
2022-09-09T19:07:59.788Z,23.87
2022-09-09T19:10:27.206Z,23.79
2022-09-09T19:12:55.729Z,23.63
2022-09-09T19:15:23.264Z,23.64
2022-09-09T19:17:51.969Z,23.28
2022-09-09T19:20:23.634Z,23.47
2022-09-09T19:22:50.815Z,23.48
2022-09-09T19:25:18.021Z,23.43
2022-09-09T19:27:45.977Z,23.53
2022-09-09T19:30:13.604Z,23.38
2022-09-09T19:32:53.125Z,23.38
2022-09-09T19:35:21.529Z,23.28
2022-09-09T19:37:49.030Z,23.17
2022-09-09T19:40:17.547Z,23.24
2022-09-09T19:42:45.558Z,23.37
2022-09-09T19:45:12.784Z,23.27
2022-09-09T19:47:40.644Z,23.29
2022-09-09T19:50:08.596Z,23.29
2022-09-09T19:52:35.790Z,23.29
2022-09-09T19:55:03.165Z,23.30
2022-09-09T19:57:30.863Z,23.34
2022-09-09T20:00:13.301Z,23.36
2022-09-09T20:03:19.292Z,23.29
2022-09-09T20:05:51.135Z,23.46
2022-09-09T20:08:43.948Z,23.24
2022-09-09T20:11:25.062Z,23.40
2022-09-09T20:14:15.922Z,23.32
2022-09-09T20:16:55.110Z,23.12
2022-09-09T20:19:46.965Z,22.93
2022-09-09T20:22:14.666Z,22.52
2022-09-09T20:25:18.868Z,22.88
2022-09-09T20:28:21.353Z,22.95
2022-09-09T20:31:26.732Z,23.00
2022-09-09T20:34:06.604Z,23.03
2022-09-09T20:37:13.825Z,22.94
2022-09-09T20:39:53.773Z,23.00
2022-09-09T20:42:55.933Z,22.99
2022-09-09T20:45:24.237Z,22.98
2022-09-09T20:48:27.417Z,22.95
2022-09-09T20:51:13.599Z,22.86
2022-09-09T20:54:06.150Z,22.93
2022-09-09T20:56:45.732Z,22.85
2022-09-09T20:59:54.826Z,22.79
2022-09-09T21:02:50.389Z,22.84
2022-09-09T21:05:29.149Z,22.84
2022-09-09T21:08:19.896Z,22.75
2022-09-09T21:11:07.351Z,22.89
2022-09-09T21:14:05.235Z,22.87
2022-09-09T21:16:50.462Z,22.77
2022-09-09T21:19:50.945Z,22.80
2022-09-09T21:22:30.321Z,22.85
2022-09-09T21:25:20.954Z,23.07
2022-09-09T21:28:05.784Z,22.70
2022-09-09T21:30:40.581Z,22.73
2022-09-09T21:33:10.763Z,22.75
2022-09-09T21:35:39.527Z,22.77
2022-09-09T21:40:36.840Z,22.73
2022-09-09T21:43:05.843Z,22.57
2022-09-09T21:45:34.953Z,22.84
2022-09-09T21:48:02.281Z,22.78
2022-09-09T21:50:29.844Z,22.77
2022-09-09T21:52:57.145Z,22.64
2022-09-09T21:55:24.527Z,22.59
2022-09-09T21:57:52.036Z,22.70
2022-09-09T22:00:19.387Z,22.63
2022-09-09T22:02:49.398Z,22.59
2022-09-09T22:05:16.618Z,22.55
2022-09-09T22:07:43.885Z,22.62
2022-09-09T22:10:12.961Z,22.44
2022-09-09T22:12:41.721Z,22.58
2022-09-09T22:15:09.137Z,22.43
2022-09-09T22:17:36.593Z,22.43
2022-09-09T22:20:04.643Z,22.56
2022-09-09T22:22:31.951Z,22.45
2022-09-09T22:24:59.504Z,22.26
2022-09-09T22:27:26.882Z,22.49
2022-09-09T22:29:54.089Z,22.43
2022-09-09T22:32:22.319Z,22.28
2022-09-09T22:34:51.205Z,22.49
2022-09-09T22:37:19.413Z,22.51
2022-09-09T22:39:47.102Z,22.54
2022-09-09T22:42:15.115Z,22.49
2022-09-09T22:44:42.343Z,22.31
2022-09-09T22:47:09.802Z,22.40
2022-09-09T22:49:37.445Z,22.40
2022-09-09T22:52:04.784Z,22.37
2022-09-09T22:54:32.414Z,22.33
2022-09-09T22:56:59.829Z,22.33
2022-09-09T22:59:27.958Z,22.22
2022-09-09T23:01:57.051Z,22.31
2022-09-09T23:04:25.273Z,22.50
2022-09-09T23:06:52.429Z,22.24
2022-09-09T23:09:19.965Z,22.46
2022-09-09T23:11:47.685Z,22.32
2022-09-09T23:14:15.057Z,22.08
2022-09-09T23:16:46.596Z,22.31
2022-09-09T23:19:15.987Z,21.98
2022-09-09T23:21:44.243Z,22.15
2022-09-09T23:24:12.373Z,22.26
2022-09-09T23:26:39.952Z,22.38
2022-09-09T23:29:07.442Z,22.57
2022-09-09T23:31:37.507Z,22.35
2022-09-09T23:34:04.878Z,22.31
2022-09-09T23:36:32.395Z,22.25
2022-09-09T23:39:00.357Z,22.28
2022-09-09T23:41:28.176Z,22.41
2022-09-09T23:43:55.861Z,22.53
2022-09-09T23:46:25.223Z,22.55
2022-09-09T23:48:52.492Z,22.44
2022-09-09T23:51:23.154Z,22.31
2022-09-09T23:53:51.224Z,22.22
2022-09-09T23:56:19.155Z,22.21
2022-09-09T23:58:47.897Z,22.45
